Terminal Aerodrome Forecast
Issued by NWS Charleston, SC

Current Version | Previous Version | Text Only | Print | Product List | Glossary Off
Versions: 1 2 3 4 5 6 7 8 9 10 11 12 13 14 15 16

853
FTUS42 KCHS 231135
TAFCHS
TAF
KCHS 231135Z 2312/2412 03005KT 5SM BR FEW003
     FM231300 06006KT P6SM SCT025
     FM231800 10009KT P6SM SCT045
     FM240000 VRB03KT P6SM FEW030=

USA.gov is the U.S. government's official web portal to all federal, state and local government web resources and services.